Time;durP1;ratioP1;P1;durP2;ratioP2;P2;SDS_P1;SDS_P2;PMS_P1;PMS_P2;Temp;Humidity;BMP_temperature;BMP_pressure;BME280_temperature;BME280_humidity;BME280_pressure;Samples;Min_cycle;Max_cycle;Signal;HPM_P1;HPM_P2
2023/08/21 00:02:02;;;;;;;4.50;3.65;;;;;;;16.69;100.00;102339.00;5060569;28;20040;-77
2023/08/21 00:04:30;;;;;;;6.25;3.70;;;;;;;16.67;100.00;102343.44;5065529;28;20047;-76
2023/08/21 00:06:57;;;;;;;10.20;3.88;;;;;;;16.64;100.00;102343.41;5103212;28;20048;-77
2023/08/21 00:09:24;;;;;;;7.97;3.85;;;;;;;16.63;100.00;102340.75;5086921;28;20488;-77
2023/08/21 00:11:52;;;;;;;5.95;3.70;;;;;;;16.60;100.00;102344.31;5079773;28;20049;-77
2023/08/21 00:14:19;;;;;;;4.90;3.60;;;;;;;16.58;100.00;102346.09;5068543;28;20059;-77
2023/08/21 00:16:46;;;;;;;5.18;3.47;;;;;;;16.56;100.00;102347.84;5024275;28;20035;-76
2023/08/21 00:19:14;;;;;;;6.50;3.80;;;;;;;16.54;100.00;102346.94;5104984;28;20059;-77
2023/08/21 00:21:41;;;;;;;7.50;3.70;;;;;;;16.53;100.00;102347.84;5077255;28;20044;-77
2023/08/21 00:24:08;;;;;;;4.75;3.42;;;;;;;16.50;100.00;102350.47;5086102;28;20039;-76
2023/08/21 00:26:35;;;;;;;4.18;3.60;;;;;;;16.47;100.00;102351.38;5082814;28;20050;-76
2023/08/21 00:29:03;;;;;;;5.25;3.55;;;;;;;16.46;100.00;102354.00;5085640;28;20504;-77
2023/08/21 00:31:32;;;;;;;6.50;4.00;;;;;;;16.44;100.00;102355.78;5022560;28;20070;-77
2023/08/21 00:33:59;;;;;;;3.80;3.35;;;;;;;16.42;100.00;102349.56;5096620;28;20039;-77
2023/08/21 00:36:27;;;;;;;4.40;3.50;;;;;;;16.40;100.00;102348.69;5102839;28;20047;-77
2023/08/21 00:38:57;;;;;;;6.77;3.73;;;;;;;16.36;100.00;102348.66;5105886;28;20043;-77
2023/08/21 00:41:24;;;;;;;7.72;3.65;;;;;;;16.34;100.00;102338.91;5120118;28;20305;-76
2023/08/21 00:43:51;;;;;;;5.53;3.47;;;;;;;16.32;100.00;102341.56;5122618;27;20043;-77
2023/08/21 00:46:19;;;;;;;3.53;3.10;;;;;;;16.33;100.00;102332.72;5104344;28;20492;-76
2023/08/21 00:48:47;;;;;;;3.67;3.33;;;;;;;16.32;100.00;102344.22;5037280;28;20134;-77
2023/08/21 00:51:16;;;;;;;4.75;3.35;;;;;;;16.29;100.00;102338.88;5081940;28;20055;-76
2023/08/21 00:53:44;;;;;;;5.32;3.38;;;;;;;16.28;100.00;102345.09;5083399;28;20058;-77
2023/08/21 00:56:13;;;;;;;3.47;3.15;;;;;;;16.26;100.00;102346.00;5104281;28;20048;-77
2023/08/21 00:58:40;;;;;;;5.63;3.78;;;;;;;16.25;100.00;102345.09;5082738;28;20055;-77
2023/08/21 01:01:08;;;;;;;3.63;3.33;;;;;;;16.24;100.00;102345.97;5085980;28;20062;-77
2023/08/21 01:03:35;;;;;;;3.58;3.05;;;;;;;16.22;100.00;102345.09;5032275;28;20131;-76
2023/08/21 01:06:03;;;;;;;7.18;3.80;;;;;;;16.21;100.00;102345.06;5082581;28;20052;-77
2023/08/21 01:08:34;;;;;;;5.40;3.25;;;;;;;16.19;100.00;102350.38;5045822;28;20051;-77
2023/08/21 01:11:13;;;;;;;6.20;3.08;;;;;;;16.15;100.00;102354.81;5090700;28;20420;-76
2023/08/21 01:13:47;;;;;;;4.85;3.95;;;;;;;16.12;100.00;102349.50;5085154;28;20496;-76
2023/08/21 01:16:16;;;;;;;5.13;3.50;;;;;;;16.08;100.00;102344.13;5094486;28;20059;-76
2023/08/21 01:18:45;;;;;;;4.25;3.15;;;;;;;16.06;100.00;102353.88;5033446;28;20067;-76
2023/08/21 01:21:12;;;;;;;5.30;3.00;;;;;;;16.02;100.00;102347.66;5072316;28;20044;-76
2023/08/21 01:23:41;;;;;;;5.13;3.40;;;;;;;16.00;100.00;102345.88;5085404;28;20052;-76
2023/08/21 01:26:09;;;;;;;5.13;3.78;;;;;;;15.96;100.00;102345.84;5091985;28;20038;-76
2023/08/21 01:28:37;;;;;;;3.60;3.10;;;;;;;15.94;100.00;102344.97;5072180;28;20048;-76
2023/08/21 01:31:14;;;;;;;3.45;2.90;;;;;;;15.91;100.00;102349.38;5069590;28;20436;-76
2023/08/21 01:33:47;;;;;;;5.43;3.05;;;;;;;15.90;100.00;102339.63;5060392;28;20044;-76
2023/08/21 01:36:15;;;;;;;5.03;3.05;;;;;;;15.88;100.00;102349.34;5086014;28;20048;-76
2023/08/21 01:38:43;;;;;;;5.82;2.65;;;;;;;15.85;100.00;102347.56;5068757;28;20394;-76
2023/08/21 01:41:11;;;;;;;4.35;2.45;;;;;;;15.83;100.00;102356.44;5088178;28;20421;-76
2023/08/21 01:43:39;;;;;;;4.72;3.17;;;;;;;15.80;100.00;102359.94;5071171;28;20051;-76
2023/08/21 01:46:06;;;;;;;4.93;2.60;;;;;;;15.78;100.00;102357.31;5091563;28;20055;-77
2023/08/21 01:48:34;;;;;;;3.45;2.60;;;;;;;15.76;100.00;102356.41;5056430;28;20106;-76
2023/08/21 01:51:02;;;;;;;6.53;3.03;;;;;;;15.75;100.00;102356.38;5087442;28;20059;-76
2023/08/21 01:53:29;;;;;;;6.05;2.88;;;;;;;15.73;100.00;102361.69;5067930;28;20048;-76
2023/08/21 01:55:57;;;;;;;6.10;3.30;;;;;;;15.72;100.00;102359.00;5050186;28;20063;-76
2023/08/21 01:58:24;;;;;;;5.38;3.00;;;;;;;15.69;100.00;102357.22;5056523;28;20501;-76
2023/08/21 02:00:52;;;;;;;4.97;2.63;;;;;;;15.70;100.00;102355.44;5051797;28;20048;-76
2023/08/21 02:03:19;;;;;;;6.10;2.92;;;;;;;15.67;100.00;102366.03;5044898;28;20084;-76
2023/08/21 02:05:47;;;;;;;7.35;3.03;;;;;;;15.64;100.00;102355.41;5052587;28;20040;-76
2023/08/21 02:08:15;;;;;;;6.28;3.20;;;;;;;15.60;100.00;102350.06;5053900;28;20429;-76
2023/08/21 02:10:49;;;;;;;8.07;3.40;;;;;;;15.60;100.00;102360.69;5068725;28;20516;-77
2023/08/21 02:13:18;;;;;;;5.82;3.03;;;;;;;15.59;100.00;102358.00;5051969;28;20051;-76
2023/08/21 02:15:46;;;;;;;4.68;2.67;;;;;;;15.56;100.00;102364.22;5073278;28;20558;-76
2023/08/21 02:18:13;;;;;;;6.57;2.90;;;;;;;15.56;100.00;102368.66;5083505;28;20055;-76
2023/08/21 02:20:41;;;;;;;6.40;3.10;;;;;;;15.53;100.00;102366.84;5054331;28;20048;-76
2023/08/21 02:23:09;;;;;;;7.00;3.15;;;;;;;15.52;100.00;102353.53;5070854;28;20036;-76
2023/08/21 02:25:37;;;;;;;6.95;3.05;;;;;;;15.49;100.00;102350.88;5085153;28;20056;-77
2023/08/21 02:28:04;;;;;;;6.60;3.00;;;;;;;15.47;100.00;102358.84;5069711;28;20067;-76
2023/08/21 02:30:32;;;;;;;6.57;3.08;;;;;;;15.46;100.00;102359.69;5082946;28;20036;-76
2023/08/21 02:32:59;;;;;;;7.90;3.50;;;;;;;15.44;100.00;102364.09;5085554;28;20405;-76
2023/08/21 02:35:26;;;;;;;7.15;3.70;;;;;;;15.43;100.00;102362.34;5041268;28;20044;-76
2023/08/21 02:37:54;;;;;;;9.18;3.00;;;;;;;15.40;100.00;102357.88;5052733;28;20051;-77
2023/08/21 02:40:21;;;;;;;3.85;3.35;;;;;;;15.39;100.00;102365.88;5084900;28;20051;-77
2023/08/21 02:42:48;;;;;;;8.63;3.47;;;;;;;15.38;100.00;102364.06;5036228;28;20048;-76
2023/08/21 02:45:16;;;;;;;5.57;3.10;;;;;;;15.36;100.00;102368.50;5068556;28;20464;-76
2023/08/21 02:47:43;;;;;;;5.60;2.83;;;;;;;15.33;100.00;102366.72;5051697;28;20048;-76
2023/08/21 02:50:11;;;;;;;6.65;3.13;;;;;;;15.32;100.00;102364.91;5065220;28;20047;-76
2023/08/21 02:52:38;;;;;;;6.45;3.63;;;;;;;15.30;100.00;102356.06;5050759;28;20040;-77
2023/08/21 02:55:07;;;;;;;5.47;3.30;;;;;;;15.29;100.00;102371.97;5069871;28;20055;-77
2023/08/21 02:57:35;;;;;;;4.38;3.33;;;;;;;15.25;100.00;102363.09;5083801;28;20516;-76
2023/08/21 03:00:03;;;;;;;5.75;3.53;;;;;;;15.25;100.00;102362.19;5069815;28;20081;-76
2023/08/21 03:02:32;;;;;;;4.30;3.10;;;;;;;15.23;100.00;102372.81;5068402;28;20059;-77
2023/08/21 03:05:00;;;;;;;7.68;3.78;;;;;;;15.22;100.00;102365.72;5087004;28;20048;-77
2023/08/21 03:07:28;;;;;;;4.25;3.13;;;;;;;15.21;100.00;102361.28;5005458;28;20485;-77
2023/08/21 03:09:55;;;;;;;7.10;3.83;;;;;;;15.20;100.00;102360.41;5070149;28;20048;-77
2023/08/21 03:12:22;;;;;;;8.35;3.58;;;;;;;15.19;100.00;102358.59;5084218;28;20420;-77
2023/08/21 03:14:50;;;;;;;5.22;3.97;;;;;;;15.19;100.00;102355.97;5052432;28;20405;-77
2023/08/21 03:17:17;;;;;;;9.57;4.50;;;;;;;15.17;100.00;102352.41;5086560;28;20070;-77
2023/08/21 03:19:45;;;;;;;11.13;5.63;;;;;;;15.17;100.00;102357.72;5071346;28;20044;-76
2023/08/21 03:22:12;;;;;;;6.60;4.35;;;;;;;15.17;100.00;102360.38;4997326;28;20048;-77
2023/08/21 03:24:40;;;;;;;7.20;4.38;;;;;;;15.16;100.00;102347.06;5050350;28;20087;-75
2023/08/21 03:27:07;;;;;;;6.55;4.03;;;;;;;15.14;100.00;102357.72;5085325;28;20059;-76
2023/08/21 03:29:35;;;;;;;8.60;4.65;;;;;;;15.13;100.00;102355.91;5082154;28;20048;-77
2023/08/21 03:32:03;;;;;;;10.98;4.10;;;;;;;15.10;100.00;102358.53;5068933;28;20052;-76
2023/08/21 03:34:30;;;;;;;7.88;3.85;;;;;;;15.07;100.00;102353.22;5049756;28;20051;-77
2023/08/21 03:37:01;;;;;;;7.45;3.55;;;;;;;15.07;100.00;102352.34;5068904;28;20418;-76
2023/08/21 03:39:31;;;;;;;4.88;3.67;;;;;;;15.06;100.00;102356.72;5027866;28;20122;-76
2023/08/21 03:42:01;;;;;;;5.30;3.60;;;;;;;15.05;100.00;102357.63;5068250;28;20052;-77
2023/08/21 03:44:29;;;;;;;2.92;2.63;;;;;;;15.05;100.00;102354.06;5082154;28;20052;-76
2023/08/21 03:46:56;;;;;;;4.45;2.30;;;;;;;15.04;100.00;102347.00;5085960;28;20074;-77
2023/08/21 03:49:23;;;;;;;7.68;2.38;;;;;;;15.01;100.00;102350.50;5084964;28;20460;-77
2023/08/21 03:51:51;;;;;;;7.90;2.92;;;;;;;14.98;100.00;102351.34;5068274;28;20420;-76
2023/08/21 03:54:18;;;;;;;3.67;2.83;;;;;;;14.99;100.00;102341.66;5039994;28;20039;-76
2023/08/21 03:56:45;;;;;;;4.45;3.45;;;;;;;14.97;100.00;102346.94;5067595;28;20682;-76
2023/08/21 03:59:14;;;;;;;3.85;3.28;;;;;;;14.97;100.00;102340.72;5067880;28;20051;-75
2023/08/21 04:01:41;;;;;;;3.38;3.08;;;;;;;14.96;100.00;102352.22;5067395;28;20186;-75
2023/08/21 04:04:09;;;;;;;3.67;3.25;;;;;;;14.94;100.00;102351.31;5069745;28;20071;-76
2023/08/21 04:06:37;;;;;;;5.40;3.63;;;;;;;14.92;100.00;102342.47;5082651;28;20054;-76
2023/08/21 04:09:06;;;;;;;4.70;3.03;;;;;;;14.91;100.00;102349.50;5039650;28;20048;-76
2023/08/21 04:11:33;;;;;;;3.97;2.63;;;;;;;14.89;100.00;102348.63;5070939;28;20051;-76
2023/08/21 04:14:01;;;;;;;4.80;2.80;;;;;;;14.89;100.00;102353.03;5044259;28;20036;-76
2023/08/21 04:16:30;;;;;;;5.60;3.20;;;;;;;14.87;100.00;102342.41;5065656;28;20424;-77
2023/08/21 04:18:58;;;;;;;6.93;3.67;;;;;;;14.87;100.00;102344.19;5103222;28;20051;-76
2023/08/21 04:21:26;;;;;;;6.05;3.28;;;;;;;14.86;100.00;102347.69;5103415;28;20044;-76
2023/08/21 04:23:54;;;;;;;7.88;3.60;;;;;;;14.86;100.00;102353.00;5031428;28;20481;-77
2023/08/21 04:26:21;;;;;;;4.70;3.38;;;;;;;14.85;100.00;102348.59;5050404;28;20048;-76
2023/08/21 04:28:48;;;;;;;6.35;3.88;;;;;;;14.84;100.00;102354.75;5083593;28;20052;-76
2023/08/21 04:31:16;;;;;;;8.60;3.50;;;;;;;14.84;100.00;102352.09;5084557;28;20047;-76
2023/08/21 04:33:46;;;;;;;9.50;4.10;;;;;;;14.84;100.00;102350.34;5083419;28;20032;-77
2023/08/21 04:36:17;;;;;;;7.80;3.63;;;;;;;14.83;100.00;102348.56;5084789;28;20122;-76
2023/08/21 04:38:49;;;;;;;4.70;3.83;;;;;;;14.84;100.00;102349.44;5028898;28;20056;-77
2023/08/21 04:41:17;;;;;;;6.40;4.38;;;;;;;14.84;100.00;102347.72;5071530;28;20052;-76
2023/08/21 04:43:46;;;;;;;10.55;4.72;;;;;;;14.86;100.00;102345.94;5070394;28;20044;-76
2023/08/21 04:46:13;;;;;;;5.43;4.07;;;;;;;14.88;100.00;102351.28;5072397;28;20056;-77
2023/08/21 04:48:43;;;;;;;6.85;4.50;;;;;;;14.91;100.00;102351.28;5070996;28;20051;-78
2023/08/21 04:51:13;;;;;;;8.95;3.78;;;;;;;14.93;100.00;102352.19;5089734;28;20048;-77
2023/08/21 04:53:40;;;;;;;7.30;4.03;;;;;;;14.96;100.00;102354.88;5070320;28;20044;-76
2023/08/21 04:56:12;;;;;;;5.85;4.18;;;;;;;14.98;100.00;102358.44;5017277;28;20063;-76
2023/08/21 04:58:40;;;;;;;8.55;4.18;;;;;;;15.01;100.00;102347.88;5072087;28;20552;-75
2023/08/21 05:01:08;;;;;;;8.13;4.30;;;;;;;15.04;100.00;102358.47;5072113;28;20933;-76
2023/08/21 05:03:42;;;;;;;6.32;3.60;;;;;;;15.06;100.00;102354.06;5086551;28;20040;-76
2023/08/21 05:06:09;;;;;;;5.90;3.90;;;;;;;15.10;100.00;102353.22;5088850;28;20056;-76
2023/08/21 05:08:38;;;;;;;6.88;3.55;;;;;;;15.13;100.00;102358.56;5069393;28;20044;-76
2023/08/21 05:11:07;;;;;;;8.63;3.97;;;;;;;15.16;100.00;102363.91;5028866;28;20528;-76
2023/08/21 05:13:37;;;;;;;6.97;3.90;;;;;;;15.20;100.00;102359.53;5082024;28;20044;-76
2023/08/21 05:16:08;;;;;;;7.57;3.90;;;;;;;15.24;100.00;102365.75;5072547;28;20059;-76
2023/08/21 05:18:38;;;;;;;5.97;3.22;;;;;;;15.26;100.00;102353.38;5084482;28;20040;-76
2023/08/21 05:21:05;;;;;;;7.38;3.90;;;;;;;15.29;100.00;102359.59;5076351;28;20047;-77
2023/08/21 05:23:32;;;;;;;6.45;3.63;;;;;;;15.33;100.00;102355.16;5105796;28;20043;-75
2023/08/21 05:26:04;;;;;;;5.63;4.00;;;;;;;15.37;100.00;102359.66;5045874;28;20063;-75
2023/08/21 05:28:32;;;;;;;5.05;3.72;;;;;;;15.42;100.00;102363.22;5052067;28;20779;-75
2023/08/21 05:30:59;;;;;;;6.80;4.07;;;;;;;15.47;100.00;102364.16;5077049;28;20052;-77
2023/08/21 05:33:32;;;;;;;4.80;3.10;;;;;;;15.53;100.00;102369.50;5096200;28;20070;-77
2023/08/21 05:35:59;;;;;;;6.90;3.33;;;;;;;15.59;100.00;102366.91;5090688;28;20048;-77
2023/08/21 05:38:27;;;;;;;6.85;3.38;;;;;;;15.64;100.00;102364.25;5088085;28;20040;-77
2023/08/21 05:40:55;;;;;;;5.47;3.53;;;;;;;15.72;100.00;102374.94;5046028;28;20055;-75
2023/08/21 05:43:23;;;;;;;5.07;3.47;;;;;;;15.78;100.00;102372.34;5068798;28;20058;-76
2023/08/21 05:45:50;;;;;;;6.30;3.85;;;;;;;15.84;100.00;102379.47;5087003;28;20044;-76
2023/08/21 05:48:18;;;;;;;7.78;3.30;;;;;;;15.89;100.00;102373.28;5070173;28;20051;-76
2023/08/21 05:50:50;;;;;;;5.32;3.80;;;;;;;15.96;100.00;102376.88;5037257;28;20055;-76
2023/08/21 05:53:18;;;;;;;8.52;4.22;;;;;;;16.02;100.00;102376.91;5070536;28;20413;-76
2023/08/21 05:55:46;;;;;;;7.85;4.45;;;;;;;16.09;100.00;102372.53;5070203;28;20698;-76
2023/08/21 05:58:13;;;;;;;6.88;3.95;;;;;;;16.15;100.00;102377.84;5048252;28;20052;-76
2023/08/21 06:00:42;;;;;;;8.75;4.35;;;;;;;16.22;100.00;102377.00;5036251;28;20036;-76
2023/08/21 06:03:09;;;;;;;12.88;4.43;;;;;;;16.30;100.00;102385.00;5070360;28;20409;-76
2023/08/21 06:06:06;;;;;;;6.40;4.22;;;;;;;16.45;100.00;102384.19;5066433;28;20048;-76
2023/08/21 06:08:34;;;;;;;5.10;4.32;;;;;;;16.56;100.00;102383.31;5083682;28;20687;-76
2023/08/21 06:11:01;;;;;;;9.40;4.38;;;;;;;16.80;100.00;102378.06;5071097;28;20047;-75
2023/08/21 06:13:28;;;;;;;6.35;4.25;;;;;;;16.96;100.00;102393.19;5041035;28;20043;-76
2023/08/21 06:15:56;;;;;;;7.03;3.70;;;;;;;17.06;100.00;102379.00;5076017;28;20035;-77
2023/08/21 06:18:25;;;;;;;8.15;4.18;;;;;;;17.13;100.00;102379.91;5089823;28;20055;-77
2023/08/21 06:20:55;;;;;;;10.60;4.53;;;;;;;17.17;100.00;102380.78;5089932;28;20051;-77
2023/08/21 06:23:23;;;;;;;6.28;4.20;;;;;;;17.21;100.00;102377.25;5105145;28;20417;-76
2023/08/21 06:25:50;;;;;;;8.30;4.10;;;;;;;17.24;100.00;102387.88;5089460;28;20044;-77
2023/08/21 06:28:20;;;;;;;9.52;4.07;;;;;;;17.33;100.00;102385.22;5037497;28;20428;-77
2023/08/21 06:30:55;;;;;;;5.88;4.07;;;;;;;17.48;100.00;102390.53;5085530;28;20048;-77
2023/08/21 06:33:23;;;;;;;6.70;3.72;;;;;;;17.66;100.00;102391.41;5084856;28;20055;-77
2023/08/21 06:35:51;;;;;;;4.35;3.88;;;;;;;17.89;100.00;102397.59;5070839;28;20052;-77
2023/08/21 06:38:18;;;;;;;9.27;3.95;;;;;;;18.21;100.00;102391.28;5036331;28;20048;-77
2023/08/21 06:40:46;;;;;;;7.70;3.58;;;;;;;18.54;100.00;102389.31;5069351;28;20048;-77
2023/08/21 06:43:13;;;;;;;5.07;3.17;;;;;;;18.70;100.00;102391.03;5079676;28;20416;-77
2023/08/21 06:45:46;;;;;;;5.63;3.63;;;;;;;18.78;100.00;102388.31;5049394;28;20051;-77
2023/08/21 06:48:14;;;;;;;7.13;3.60;;;;;;;18.82;100.00;102394.56;5070370;28;20063;-76
2023/08/21 06:50:41;;;;;;;5.25;3.20;;;;;;;18.85;100.00;102391.88;5083910;28;20051;-77
2023/08/21 06:53:09;;;;;;;6.55;3.45;;;;;;;18.88;100.00;102394.50;5085972;28;20059;-77
2023/08/21 06:55:36;;;;;;;7.40;3.47;;;;;;;18.88;100.00;102394.50;5034499;28;20051;-77
2023/08/21 06:58:03;;;;;;;12.18;3.30;;;;;;;18.92;100.00;102390.03;5086540;28;20044;-77
2023/08/21 07:00:31;;;;;;;8.05;2.97;;;;;;;19.02;100.00;102394.44;5007410;28;20040;-77
2023/08/21 07:02:58;;;;;;;9.60;3.72;;;;;;;19.16;100.00;102395.19;5085259;28;20414;-76
2023/08/21 07:05:26;;;;;;;9.82;3.83;;;;;;;19.31;100.00;102391.50;5084958;28;20047;-77
2023/08/21 07:07:54;;;;;;;7.22;3.42;;;;;;;19.42;100.00;102386.06;5053055;28;20051;-77
2023/08/21 07:10:22;;;;;;;7.00;3.35;;;;;;;19.58;100.00;102376.09;5068017;28;20512;-75
2023/08/21 07:12:49;;;;;;;9.18;3.83;;;;;;;19.80;100.00;102382.16;5087594;28;20927;-77
2023/08/21 07:15:17;;;;;;;6.95;3.10;;;;;;;20.02;100.00;102374.78;5008751;28;20413;-77
2023/08/21 07:17:44;;;;;;;4.57;3.00;;;;;;;20.19;100.00;102374.56;5092291;28;20036;-77
2023/08/21 07:20:11;;;;;;;5.72;2.83;;;;;;;20.34;100.00;102370.78;5105381;28;20416;-76
2023/08/21 07:22:39;;;;;;;5.93;2.90;;;;;;;20.43;100.00;102376.00;5099422;28;20070;-77
2023/08/21 07:25:07;;;;;;;3.05;2.50;;;;;;;20.47;100.00;102372.38;5080546;28;20048;-77
2023/08/21 07:27:35;;;;;;;4.30;2.35;;;;;;;20.51;100.00;102373.22;5069421;28;20050;-77
2023/08/21 07:30:02;;;;;;;6.82;2.33;;;;;;;20.54;100.00;102371.41;5045810;28;20050;-77
2023/08/21 07:32:29;;;;;;;7.30;1.92;;;;;;;20.57;100.00;102370.47;5075319;28;20055;-77
2023/08/21 07:34:57;;;;;;;2.63;2.00;;;;;;;20.62;100.00;102374.91;5068723;28;20032;-76
2023/08/21 07:37:24;;;;;;;7.82;2.20;;;;;;;20.67;100.00;102373.94;5067255;28;20044;-77
2023/08/21 07:39:52;;;;;;;5.15;1.98;;;;;;;20.70;100.00;102369.44;5087700;28;20051;-77
2023/08/21 07:42:20;;;;;;;2.95;1.50;;;;;;;20.71;100.00;102370.31;5084908;28;20047;-77
2023/08/21 07:44:47;;;;;;;4.95;1.77;;;;;;;20.72;100.00;102381.00;5069710;28;20040;-77
2023/08/21 07:47:15;;;;;;;4.72;1.70;;;;;;;20.73;100.00;102372.03;5027035;28;20059;-77
2023/08/21 07:49:43;;;;;;;3.72;1.63;;;;;;;20.76;100.00;102373.81;5085472;28;20035;-77
2023/08/21 07:52:10;;;;;;;4.63;2.15;;;;;;;20.79;100.00;102377.34;5086890;28;20074;-77
2023/08/21 07:54:37;;;;;;;2.78;1.40;;;;;;;20.83;100.00;102378.13;5078590;28;20052;-76
2023/08/21 07:57:05;;;;;;;5.43;1.77;;;;;;;20.87;100.00;102381.66;5075794;28;20056;-77
2023/08/21 07:59:32;;;;;;;2.97;1.58;;;;;;;20.91;100.00;102381.59;5068259;28;20122;-77
2023/08/21 08:02:00;;;;;;;8.80;2.05;;;;;;;20.94;100.00;102381.53;5041198;28;20047;-77
2023/08/21 08:04:29;;;;;;;6.68;1.85;;;;;;;20.98;100.00;102379.69;5047536;28;20053;-77
2023/08/21 08:06:57;;;;;;;3.00;1.30;;;;;;;21.02;100.00;102384.13;5083367;28;20048;-76
2023/08/21 08:09:25;;;;;;;4.93;1.40;;;;;;;21.07;100.00;102386.72;5050341;28;20048;-76
2023/08/21 08:11:52;;;;;;;5.72;1.33;;;;;;;21.11;100.00;102383.94;5067957;28;20048;-77
2023/08/21 08:14:20;;;;;;;4.47;1.40;;;;;;;21.16;100.00;102386.56;5087935;28;20043;-77
2023/08/21 08:16:47;;;;;;;1.75;1.38;;;;;;;21.20;100.00;102386.47;5083762;28;20118;-77
2023/08/21 08:19:14;;;;;;;2.30;1.17;;;;;;;21.25;100.00;102383.75;5044945;28;20051;-76
2023/08/21 08:21:42;;;;;;;3.67;1.42;;;;;;;21.31;100.00;102386.31;5087044;28;20130;-76
2023/08/21 08:24:10;;;;;;;4.43;1.58;;;;;;;21.36;100.00;102384.44;5055541;28;20400;-77
2023/08/21 08:26:37;;;;;;;4.80;1.13;;;;;;;21.45;100.00;102385.22;5086129;28;20058;-77
2023/08/21 08:29:05;;;;;;;5.93;1.42;;;;;;;21.52;100.00;102381.50;5088392;28;20048;-76
2023/08/21 08:31:32;;;;;;;6.35;1.38;;;;;;;21.63;100.00;102392.94;5069192;28;20044;-76
2023/08/21 08:34:01;;;;;;;4.57;1.17;;;;;;;21.70;100.00;102383.84;5044486;28;20040;-77
2023/08/21 08:36:28;;;;;;;3.35;1.05;;;;;;;21.76;100.00;102381.03;5068450;28;20492;-77
2023/08/21 08:38:55;;;;;;;2.70;1.02;;;;;;;21.82;100.00;102376.50;5089126;28;20397;-77
2023/08/21 08:41:32;;;;;;;3.92;1.20;;;;;;;21.88;100.00;102373.69;5070858;28;20056;-77
2023/08/21 08:44:01;;;;;;;3.05;1.08;;;;;;;21.96;100.00;102382.44;5088841;28;20048;-77
2023/08/21 08:46:30;;;;;;;2.63;1.48;;;;;;;21.99;100.00;102382.41;5088447;28;20417;-77
2023/08/21 08:48:59;;;;;;;2.80;1.13;;;;;;;22.06;100.00;102378.69;5028400;28;20040;-77
2023/08/21 08:51:30;;;;;;;2.72;1.10;;;;;;;22.16;100.00;102388.28;5085978;28;20525;-76
2023/08/21 08:53:58;;;;;;;5.28;1.10;;;;;;;22.26;100.00;102385.44;5089100;28;20137;-76
2023/08/21 08:56:26;;;;;;;4.75;1.05;;;;;;;22.32;100.00;102385.31;5087455;28;20523;-77
2023/08/21 08:58:53;;;;;;;4.07;1.40;;;;;;;22.40;100.00;102380.69;5056196;28;20058;-77
2023/08/21 09:01:21;;;;;;;2.60;0.88;;;;;;;22.50;100.00;102379.53;5086740;28;20047;-76
2023/08/21 09:03:50;;;;;;;3.13;0.95;;;;;;;22.57;100.00;102378.50;5026262;28;20063;-77
2023/08/21 09:06:17;;;;;;;3.78;1.10;;;;;;;22.67;100.00;102379.16;5071851;28;20512;-77
2023/08/21 09:08:55;;;;;;;3.60;1.15;;;;;;;22.75;100.00;102384.34;5086262;28;20052;-77
2023/08/21 09:11:24;;;;;;;2.35;1.10;;;;;;;22.83;100.00;102381.47;5086704;28;20056;-77
2023/08/21 09:13:53;;;;;;;5.65;1.30;;;;;;;22.90;100.00;102375.03;5087762;28;20056;-77
2023/08/21 09:16:22;;;;;;;1.98;1.00;;;;;;;22.96;100.00;102378.44;5097220;28;20044;-78
2023/08/21 09:18:56;;;;;;;4.37;1.47;;;;;;;23.00;100.00;102376.56;5106859;28;20117;-77
2023/08/21 09:21:25;;;;;;;4.18;1.17;;;;;;;23.07;100.00;102377.34;5044823;27;20052;-77
2023/08/21 09:23:58;;;;;;;2.78;1.05;;;;;;;23.09;100.00;102375.50;5071602;28;20055;-77
2023/08/21 09:26:27;;;;;;;2.10;1.20;;;;;;;23.11;100.00;102379.91;5084295;28;20052;-77
2023/08/21 09:28:54;;;;;;;2.72;0.95;;;;;;;23.15;100.00;102378.91;5071775;28;20044;-77
2023/08/21 09:31:29;;;;;;;3.83;1.03;;;;;;;23.17;100.00;102378.88;5070172;28;20619;-77
2023/08/21 09:33:59;;;;;;;2.90;1.10;;;;;;;23.20;100.00;102367.19;5054961;28;20893;-76
2023/08/21 09:36:27;;;;;;;4.50;1.47;;;;;;;23.26;100.00;102372.38;5045292;28;20036;-78
2023/08/21 09:38:55;;;;;;;4.47;1.15;;;;;;;23.33;100.00;102376.69;5088327;28;20390;-78
2023/08/21 09:41:23;;;;;;;4.13;0.90;;;;;;;23.39;100.00;102368.44;5087483;28;20493;-77
2023/08/21 09:43:51;;;;;;;2.38;1.42;;;;;;;23.47;100.00;102358.34;5087290;28;20048;-77
2023/08/21 09:46:26;;;;;;;3.42;1.30;;;;;;;23.56;100.00;102362.63;5087481;28;20044;-77
2023/08/21 09:48:54;;;;;;;6.28;1.20;;;;;;;23.63;100.00;102356.16;5055717;28;20040;-77
2023/08/21 09:51:21;;;;;;;3.15;1.33;;;;;;;23.67;100.00;102360.50;5042551;28;20051;-76
2023/08/21 09:53:50;;;;;;;1.85;1.33;;;;;;;23.73;100.00;102363.03;5069758;28;20044;-76
2023/08/21 09:56:20;;;;;;;2.60;1.17;;;;;;;23.81;99.88;102349.38;5086336;28;20521;-77
2023/08/21 09:58:48;;;;;;;0.75;0.55;;;;;;;23.88;99.14;102350.97;5051288;28;20058;-77
2023/08/21 10:01:20;;;;;;;4.70;1.48;;;;;;;23.97;99.47;102349.84;5080221;28;20059;-77
2023/08/21 10:03:49;;;;;;;3.83;0.80;;;;;;;23.99;96.12;102347.06;5072219;28;20039;-78
2023/08/21 10:06:20;;;;;;;4.50;1.10;;;;;;;24.01;96.72;102353.34;5029368;28;20048;-78
2023/08/21 10:08:53;;;;;;;2.30;0.80;;;;;;;24.06;93.34;102356.75;5056347;28;20044;-77
2023/08/21 10:11:21;;;;;;;1.50;0.60;;;;;;;24.06;93.00;102349.53;5070580;28;20056;-77
2023/08/21 10:13:51;;;;;;;3.72;1.20;;;;;;;24.10;92.54;102350.34;5071543;28;20055;-77
2023/08/21 10:16:21;;;;;;;2.43;1.07;;;;;;;24.13;92.17;102344.88;5079889;28;20043;-77
2023/08/21 10:18:49;;;;;;;2.30;0.90;;;;;;;24.15;90.77;102342.13;5093515;27;20052;-76
2023/08/21 10:21:21;;;;;;;3.15;0.82;;;;;;;24.19;89.13;102351.88;5075288;28;20051;-76
2023/08/21 10:23:51;;;;;;;2.42;1.02;;;;;;;24.23;89.78;102348.16;5075918;28;21026;-77
2023/08/21 10:26:20;;;;;;;2.08;1.50;;;;;;;24.29;89.93;102345.28;5069530;28;20044;-77
2023/08/21 10:28:55;;;;;;;3.00;1.30;;;;;;;24.39;88.50;102343.22;5085981;28;20044;-77
2023/08/21 10:31:28;;;;;;;2.97;0.95;;;;;;;24.45;87.72;102346.56;5085299;28;20044;-78
2023/08/21 10:33:57;;;;;;;4.85;1.35;;;;;;;24.49;86.56;102348.22;5071164;28;20039;-76
2023/08/21 10:36:43;;;;;;;2.03;0.95;;;;;;;24.54;85.57;102352.63;5053218;28;20059;-77
2023/08/21 10:39:17;;;;;;;3.88;1.10;;;;;;;24.60;85.76;102347.06;5074628;28;20052;-77
2023/08/21 10:41:57;;;;;;;4.32;1.00;;;;;;;24.66;84.92;102349.56;5085269;28;20559;-76
2023/08/21 10:44:42;;;;;;;5.00;0.93;;;;;;;24.74;79.24;102338.53;5085376;28;20051;-77
2023/08/21 10:47:16;;;;;;;3.88;0.88;;;;;;;24.78;82.48;102343.75;5070469;28;20040;-77
2023/08/21 10:49:49;;;;;;;2.70;0.95;;;;;;;24.81;83.79;102343.66;5086053;28;20835;-77
2023/08/21 10:52:22;;;;;;;1.48;0.70;;;;;;;24.86;80.55;102341.69;5044301;28;20048;-77
2023/08/21 10:54:55;;;;;;;3.25;1.10;;;;;;;24.92;80.92;102337.91;5087027;28;20678;-77
2023/08/21 10:57:24;;;;;;;1.13;0.68;;;;;;;24.96;81.86;102330.59;5086519;28;20048;-78
2023/08/21 11:00:03;;;;;;;6.15;1.05;;;;;;;25.02;79.58;102333.09;5087326;28;20044;-77
2023/08/21 11:02:32;;;;;;;2.58;0.90;;;;;;;25.05;80.94;102323.09;5084186;28;20055;-77
2023/08/21 11:05:02;;;;;;;3.70;0.70;;;;;;;25.12;78.41;102326.44;5087997;28;20052;-77
2023/08/21 11:07:36;;;;;;;3.13;0.95;;;;;;;25.21;78.51;102336.91;5009892;28;20886;-77
2023/08/21 11:10:06;;;;;;;1.65;0.68;;;;;;;25.27;77.08;102338.53;5072815;28;20600;-78
2023/08/21 11:12:38;;;;;;;1.75;0.73;;;;;;;25.35;76.91;102336.47;5068900;28;21145;-77
2023/08/21 11:15:06;;;;;;;4.13;0.70;;;;;;;25.40;76.56;102344.41;5068869;28;20054;-78
2023/08/21 11:17:33;;;;;;;1.80;0.80;;;;;;;25.49;75.31;102347.63;5089158;28;20043;-76
2023/08/21 11:20:04;;;;;;;2.17;0.80;;;;;;;25.54;73.83;102338.50;5089313;28;20390;-77
2023/08/21 11:22:32;;;;;;;3.70;1.33;;;;;;;25.65;76.45;102344.38;5090270;28;20062;-77
2023/08/21 11:24:59;;;;;;;1.48;0.77;;;;;;;25.67;76.28;102346.09;5034232;28;20044;-78